DTTJ/DJE METAR and TAF weather

Enter ICAO airport designator
Station Type Date Time Source
DTTJ METAR 2019/07/17 12:30 UTC NOAA

DTTJ 171230Z 01009KT 350V070 CAVOK 29/15 Q1014 NOSIG


Station Type Date Time Source
DTTJ Decoded METAR 2019/07/17 12:30 UTC NOAA

Djerba Mellita, Tunisia (DTTJ) 33-52N 010-46E 4M
Jul 17, 2019 - 08:30 AM EDT / 2019.07.17 1230 UTC
Wind: from the N (010 degrees) at 10 MPH (9 KT) (direction variable):0
Visibility: greater than 7 mile(s):0
Temperature: 84 F (29 C)
Dew Point: 59 F (15 C)
Relative Humidity: 42%
Pressure (altimeter): 29.94 in. Hg (1014 hPa)
ob: DTTJ 171230Z 01009KT 350V070 CAVOK 29/15 Q1014 NOSIG
cycle: 12

Station Type Date Time Source
DTTJ TAF 2019/07/17 12:35 UTC NOAA

TAF DTTJ 171100Z 1712/1812 01010KT 9999 FEW023

Example: see airport list